UBBB/BAK METAR and TAF weather

Enter ICAO airport designator
Station Type Date Time Source
UBBB METAR 2022/05/26 05:00 UTC NOAA

UBBB 260500Z 21004KT 9999 FEW060CB 20/08 Q1022 NOSIG


Station Type Date Time Source
UBBB Decoded METAR 2022/05/26 05:00 UTC NOAA

Baku / Bine Airport, Azerbaijan (UBBB) 40-27N 050-04E -1M
May 26, 2022 - 01:00 AM EDT / 2022.05.26 0500 UTC
Wind: from the SSW (210 degrees) at 5 MPH (4 KT):0
Visibility: greater than 7 mile(s):0
Sky conditions: mostly clear
Weather: Cumulonimbus clouds observed
Temperature: 68 F (20 C)
Dew Point: 46 F (8 C)
Relative Humidity: 45%
Pressure (altimeter): 30.18 in. Hg (1022 hPa)
ob: UBBB 260500Z 21004KT 9999 FEW060CB 20/08 Q1022 NOSIG
cycle: 5

Station Type Date Time Source
UBBB TAF 2022/05/26 06:09 UTC NOAA

TAF TAF UBBB 260506Z 2606/2706 19010KT 9999 SCT030 TX23/2611Z TN13/2702Z
TEMPO 2606/2609 22005KT FEW050CB
TEMPO 2609/2618 21016KT
TEMPO 2618/2706 SCT012

Example: see airport list